sensor_id;sensor_type;location;lat;lon;timestamp;P1;durP1;ratioP1;P2;durP2;ratioP2
3050;SDS011;1535;51.098;6.414;2023-03-16T00:02:00;18.30;;;14.80;;
3050;SDS011;1535;51.098;6.414;2023-03-16T00:04:28;15.07;;;13.83;;
3050;SDS011;1535;51.098;6.414;2023-03-16T00:06:55;15.50;;;14.23;;
3050;SDS011;1535;51.098;6.414;2023-03-16T00:09:22;14.80;;;13.60;;
3050;SDS011;1535;51.098;6.414;2023-03-16T00:11:56;29.97;;;15.23;;
3050;SDS011;1535;51.098;6.414;2023-03-16T00:14:23;16.20;;;14.50;;
3050;SDS011;1535;51.098;6.414;2023-03-16T00:16:50;17.63;;;14.30;;
3050;SDS011;1535;51.098;6.414;2023-03-16T00:19:17;19.73;;;13.77;;
3050;SDS011;1535;51.098;6.414;2023-03-16T00:21:46;14.53;;;13.27;;
3050;SDS011;1535;51.098;6.414;2023-03-16T00:24:13;14.70;;;13.30;;
3050;SDS011;1535;51.098;6.414;2023-03-16T00:26:42;17.53;;;14.40;;
3050;SDS011;1535;51.098;6.414;2023-03-16T00:29:11;24.77;;;13.60;;
3050;SDS011;1535;51.098;6.414;2023-03-16T00:31:39;15.90;;;13.93;;
3050;SDS011;1535;51.098;6.414;2023-03-16T00:34:07;14.00;;;13.10;;
3050;SDS011;1535;51.098;6.414;2023-03-16T00:36:35;20.97;;;14.07;;
3050;SDS011;1535;51.098;6.414;2023-03-16T00:39:02;20.90;;;14.20;;
3050;SDS011;1535;51.098;6.414;2023-03-16T00:41:29;14.87;;;13.87;;
3050;SDS011;1535;51.098;6.414;2023-03-16T00:43:56;13.93;;;13.03;;
3050;SDS011;1535;51.098;6.414;2023-03-16T00:46:25;14.53;;;13.53;;
3050;SDS011;1535;51.098;6.414;2023-03-16T00:48:52;15.27;;;13.70;;
3050;SDS011;1535;51.098;6.414;2023-03-16T00:51:18;14.40;;;13.27;;
3050;SDS011;1535;51.098;6.414;2023-03-16T00:53:46;15.53;;;13.63;;
3050;SDS011;1535;51.098;6.414;2023-03-16T00:56:14;16.30;;;14.60;;
3050;SDS011;1535;51.098;6.414;2023-03-16T00:58:42;14.60;;;13.50;;
3050;SDS011;1535;51.098;6.414;2023-03-16T01:01:10;15.70;;;14.40;;
3050;SDS011;1535;51.098;6.414;2023-03-16T01:03:40;15.53;;;14.13;;
3050;SDS011;1535;51.098;6.414;2023-03-16T01:06:09;15.17;;;13.87;;
3050;SDS011;1535;51.098;6.414;2023-03-16T01:08:38;14.60;;;13.43;;
3050;SDS011;1535;51.098;6.414;2023-03-16T01:11:06;14.33;;;12.97;;
3050;SDS011;1535;51.098;6.414;2023-03-16T01:13:34;16.03;;;13.90;;
3050;SDS011;1535;51.098;6.414;2023-03-16T01:16:01;15.40;;;14.30;;
3050;SDS011;1535;51.098;6.414;2023-03-16T01:18:29;16.07;;;14.70;;
3050;SDS011;1535;51.098;6.414;2023-03-16T01:20:59;15.73;;;13.60;;
3050;SDS011;1535;51.098;6.414;2023-03-16T01:23:26;13.53;;;12.83;;
3050;SDS011;1535;51.098;6.414;2023-03-16T01:25:55;14.17;;;13.33;;
3050;SDS011;1535;51.098;6.414;2023-03-16T01:28:23;15.07;;;14.00;;
3050;SDS011;1535;51.098;6.414;2023-03-16T01:30:52;15.10;;;13.97;;
3050;SDS011;1535;51.098;6.414;2023-03-16T01:33:28;13.73;;;12.93;;
3050;SDS011;1535;51.098;6.414;2023-03-16T01:35:55;13.83;;;12.93;;
3050;SDS011;1535;51.098;6.414;2023-03-16T01:38:25;14.60;;;13.20;;
3050;SDS011;1535;51.098;6.414;2023-03-16T01:40:53;14.03;;;12.93;;
3050;SDS011;1535;51.098;6.414;2023-03-16T01:43:22;14.50;;;13.40;;
3050;SDS011;1535;51.098;6.414;2023-03-16T01:46:10;15.30;;;13.07;;
3050;SDS011;1535;51.098;6.414;2023-03-16T01:51:35;13.80;;;12.90;;
3050;SDS011;1535;51.098;6.414;2023-03-16T01:54:08;16.60;;;13.13;;
3050;SDS011;1535;51.098;6.414;2023-03-16T01:56:55;13.17;;;12.20;;
3050;SDS011;1535;51.098;6.414;2023-03-16T01:59:27;13.90;;;13.00;;
3050;SDS011;1535;51.098;6.414;2023-03-16T02:01:57;14.67;;;13.57;;
3050;SDS011;1535;51.098;6.414;2023-03-16T02:04:43;13.30;;;12.40;;
3050;SDS011;1535;51.098;6.414;2023-03-16T02:07:14;15.57;;;13.33;;
3050;SDS011;1535;51.098;6.414;2023-03-16T02:09:45;12.40;;;11.70;;
3050;SDS011;1535;51.098;6.414;2023-03-16T02:12:15;13.30;;;12.20;;
3050;SDS011;1535;51.098;6.414;2023-03-16T02:14:43;13.60;;;12.40;;
3050;SDS011;1535;51.098;6.414;2023-03-16T02:17:12;12.90;;;12.10;;
3050;SDS011;1535;51.098;6.414;2023-03-16T02:19:43;13.60;;;12.67;;
3050;SDS011;1535;51.098;6.414;2023-03-16T02:22:18;12.47;;;11.80;;
3050;SDS011;1535;51.098;6.414;2023-03-16T02:24:50;14.00;;;12.60;;
3050;SDS011;1535;51.098;6.414;2023-03-16T02:27:19;14.00;;;13.07;;
3050;SDS011;1535;51.098;6.414;2023-03-16T02:29:55;13.33;;;12.23;;
3050;SDS011;1535;51.098;6.414;2023-03-16T02:32:26;12.97;;;11.70;;
3050;SDS011;1535;51.098;6.414;2023-03-16T02:34:55;13.50;;;12.40;;
3050;SDS011;1535;51.098;6.414;2023-03-16T02:37:24;13.73;;;12.40;;
3050;SDS011;1535;51.098;6.414;2023-03-16T02:39:51;13.33;;;12.50;;
3050;SDS011;1535;51.098;6.414;2023-03-16T02:42:19;13.47;;;12.37;;
3050;SDS011;1535;51.098;6.414;2023-03-16T02:44:49;14.27;;;13.13;;
3050;SDS011;1535;51.098;6.414;2023-03-16T02:47:24;13.87;;;12.83;;
3050;SDS011;1535;51.098;6.414;2023-03-16T02:49:55;13.47;;;12.43;;
3050;SDS011;1535;51.098;6.414;2023-03-16T02:52:22;13.57;;;12.50;;
3050;SDS011;1535;51.098;6.414;2023-03-16T02:54:49;14.03;;;12.70;;
3050;SDS011;1535;51.098;6.414;2023-03-16T02:57:16;15.03;;;13.93;;
3050;SDS011;1535;51.098;6.414;2023-03-16T02:59:43;13.27;;;12.27;;
3050;SDS011;1535;51.098;6.414;2023-03-16T03:02:10;13.07;;;12.27;;
3050;SDS011;1535;51.098;6.414;2023-03-16T03:04:38;13.90;;;13.10;;
3050;SDS011;1535;51.098;6.414;2023-03-16T03:07:05;13.47;;;12.57;;
3050;SDS011;1535;51.098;6.414;2023-03-16T03:09:33;13.70;;;12.70;;
3050;SDS011;1535;51.098;6.414;2023-03-16T03:12:00;13.90;;;12.87;;
3050;SDS011;1535;51.098;6.414;2023-03-16T03:14:28;13.50;;;12.63;;
3050;SDS011;1535;51.098;6.414;2023-03-16T03:16:55;14.13;;;13.23;;
3050;SDS011;1535;51.098;6.414;2023-03-16T03:19:22;13.17;;;12.17;;
3050;SDS011;1535;51.098;6.414;2023-03-16T03:21:50;15.60;;;12.93;;
3050;SDS011;1535;51.098;6.414;2023-03-16T03:24:20;12.70;;;11.63;;
3050;SDS011;1535;51.098;6.414;2023-03-16T03:26:48;13.13;;;12.33;;
3050;SDS011;1535;51.098;6.414;2023-03-16T03:29:16;14.23;;;13.00;;
3050;SDS011;1535;51.098;6.414;2023-03-16T03:31:42;14.60;;;13.20;;
3050;SDS011;1535;51.098;6.414;2023-03-16T03:34:09;12.87;;;11.97;;
3050;SDS011;1535;51.098;6.414;2023-03-16T03:36:36;14.27;;;12.97;;
3050;SDS011;1535;51.098;6.414;2023-03-16T03:39:05;13.97;;;12.90;;
3050;SDS011;1535;51.098;6.414;2023-03-16T03:41:32;13.90;;;13.00;;
3050;SDS011;1535;51.098;6.414;2023-03-16T03:44:00;13.50;;;12.70;;
3050;SDS011;1535;51.098;6.414;2023-03-16T03:46:27;15.67;;;14.30;;
3050;SDS011;1535;51.098;6.414;2023-03-16T03:48:53;13.67;;;12.37;;
3050;SDS011;1535;51.098;6.414;2023-03-16T03:51:25;15.87;;;14.27;;
3050;SDS011;1535;51.098;6.414;2023-03-16T03:53:52;14.07;;;12.87;;
3050;SDS011;1535;51.098;6.414;2023-03-16T03:56:20;14.47;;;13.20;;
3050;SDS011;1535;51.098;6.414;2023-03-16T03:58:47;13.20;;;12.50;;
3050;SDS011;1535;51.098;6.414;2023-03-16T04:01:14;14.20;;;13.00;;
3050;SDS011;1535;51.098;6.414;2023-03-16T04:03:41;14.33;;;13.27;;
3050;SDS011;1535;51.098;6.414;2023-03-16T04:06:08;14.83;;;13.40;;
3050;SDS011;1535;51.098;6.414;2023-03-16T04:08:35;21.23;;;13.70;;
3050;SDS011;1535;51.098;6.414;2023-03-16T04:11:02;15.07;;;13.97;;
3050;SDS011;1535;51.098;6.414;2023-03-16T04:13:30;14.73;;;13.50;;
3050;SDS011;1535;51.098;6.414;2023-03-16T04:15:57;14.83;;;13.53;;
3050;SDS011;1535;51.098;6.414;2023-03-16T04:18:26;15.00;;;13.87;;
3050;SDS011;1535;51.098;6.414;2023-03-16T04:20:53;15.03;;;13.50;;
3050;SDS011;1535;51.098;6.414;2023-03-16T04:23:20;15.03;;;13.73;;
3050;SDS011;1535;51.098;6.414;2023-03-16T04:25:49;14.60;;;13.67;;
3050;SDS011;1535;51.098;6.414;2023-03-16T04:28:15;20.23;;;13.40;;
3050;SDS011;1535;51.098;6.414;2023-03-16T04:30:44;14.50;;;13.50;;
3050;SDS011;1535;51.098;6.414;2023-03-16T04:33:10;15.00;;;13.80;;
3050;SDS011;1535;51.098;6.414;2023-03-16T04:35:38;14.63;;;13.67;;
3050;SDS011;1535;51.098;6.414;2023-03-16T04:38:06;14.37;;;12.93;;
3050;SDS011;1535;51.098;6.414;2023-03-16T04:40:34;14.93;;;13.70;;
3050;SDS011;1535;51.098;6.414;2023-03-16T04:43:01;15.37;;;14.37;;
3050;SDS011;1535;51.098;6.414;2023-03-16T04:45:28;15.00;;;14.10;;
3050;SDS011;1535;51.098;6.414;2023-03-16T04:47:56;14.93;;;14.07;;
3050;SDS011;1535;51.098;6.414;2023-03-16T04:50:23;14.10;;;13.37;;
3050;SDS011;1535;51.098;6.414;2023-03-16T04:52:50;15.73;;;14.63;;
3050;SDS011;1535;51.098;6.414;2023-03-16T04:55:17;13.73;;;12.93;;
3050;SDS011;1535;51.098;6.414;2023-03-16T04:57:44;15.80;;;14.60;;
3050;SDS011;1535;51.098;6.414;2023-03-16T05:00:12;16.07;;;14.77;;
3050;SDS011;1535;51.098;6.414;2023-03-16T05:02:43;15.20;;;14.10;;
3050;SDS011;1535;51.098;6.414;2023-03-16T05:05:12;15.30;;;14.30;;
3050;SDS011;1535;51.098;6.414;2023-03-16T05:07:39;17.10;;;15.40;;
3050;SDS011;1535;51.098;6.414;2023-03-16T05:10:07;15.77;;;14.43;;
3050;SDS011;1535;51.098;6.414;2023-03-16T05:12:34;14.87;;;13.73;;
3050;SDS011;1535;51.098;6.414;2023-03-16T05:15:01;16.20;;;15.00;;
3050;SDS011;1535;51.098;6.414;2023-03-16T05:17:27;15.80;;;14.47;;
3050;SDS011;1535;51.098;6.414;2023-03-16T05:19:55;22.50;;;15.17;;
3050;SDS011;1535;51.098;6.414;2023-03-16T05:22:23;16.73;;;15.43;;
3050;SDS011;1535;51.098;6.414;2023-03-16T05:24:50;15.40;;;14.30;;
3050;SDS011;1535;51.098;6.414;2023-03-16T05:27:17;28.53;;;15.43;;
3050;SDS011;1535;51.098;6.414;2023-03-16T05:29:45;18.77;;;15.13;;
3050;SDS011;1535;51.098;6.414;2023-03-16T05:32:12;16.87;;;15.17;;
3050;SDS011;1535;51.098;6.414;2023-03-16T05:34:41;16.10;;;14.70;;
3050;SDS011;1535;51.098;6.414;2023-03-16T05:37:08;20.33;;;15.27;;
3050;SDS011;1535;51.098;6.414;2023-03-16T05:39:37;15.63;;;14.13;;
3050;SDS011;1535;51.098;6.414;2023-03-16T05:42:04;17.20;;;14.90;;
3050;SDS011;1535;51.098;6.414;2023-03-16T05:44:31;18.13;;;15.50;;
3050;SDS011;1535;51.098;6.414;2023-03-16T05:46:58;15.70;;;14.30;;
3050;SDS011;1535;51.098;6.414;2023-03-16T05:49:24;16.17;;;14.77;;
3050;SDS011;1535;51.098;6.414;2023-03-16T05:51:51;16.43;;;14.83;;
3050;SDS011;1535;51.098;6.414;2023-03-16T05:54:18;17.00;;;15.30;;
3050;SDS011;1535;51.098;6.414;2023-03-16T05:56:47;17.83;;;14.53;;
3050;SDS011;1535;51.098;6.414;2023-03-16T05:59:13;29.00;;;15.10;;
3050;SDS011;1535;51.098;6.414;2023-03-16T06:01:41;18.83;;;15.13;;
3050;SDS011;1535;51.098;6.414;2023-03-16T06:04:08;16.33;;;14.57;;
3050;SDS011;1535;51.098;6.414;2023-03-16T06:06:35;17.33;;;15.60;;
3050;SDS011;1535;51.098;6.414;2023-03-16T06:09:03;20.03;;;15.03;;
3050;SDS011;1535;51.098;6.414;2023-03-16T06:11:30;19.00;;;14.23;;
3050;SDS011;1535;51.098;6.414;2023-03-16T06:13:58;17.03;;;15.63;;
3050;SDS011;1535;51.098;6.414;2023-03-16T06:16:25;16.90;;;14.40;;
3050;SDS011;1535;51.098;6.414;2023-03-16T06:18:52;16.00;;;14.73;;
3050;SDS011;1535;51.098;6.414;2023-03-16T06:21:20;16.00;;;14.50;;
3050;SDS011;1535;51.098;6.414;2023-03-16T06:23:47;16.90;;;15.23;;
3050;SDS011;1535;51.098;6.414;2023-03-16T06:26:14;26.73;;;15.53;;
3050;SDS011;1535;51.098;6.414;2023-03-16T06:28:41;16.60;;;15.20;;
3050;SDS011;1535;51.098;6.414;2023-03-16T06:31:09;16.43;;;14.70;;
3050;SDS011;1535;51.098;6.414;2023-03-16T06:33:36;16.77;;;15.07;;
3050;SDS011;1535;51.098;6.414;2023-03-16T06:36:03;16.97;;;15.33;;
3050;SDS011;1535;51.098;6.414;2023-03-16T06:38:30;17.03;;;15.43;;
3050;SDS011;1535;51.098;6.414;2023-03-16T06:40:57;16.13;;;15.00;;
3050;SDS011;1535;51.098;6.414;2023-03-16T06:43:25;15.70;;;14.67;;
3050;SDS011;1535;51.098;6.414;2023-03-16T06:45:52;16.90;;;15.60;;
3050;SDS011;1535;51.098;6.414;2023-03-16T06:48:21;16.00;;;14.70;;
3050;SDS011;1535;51.098;6.414;2023-03-16T06:50:48;16.43;;;14.80;;
3050;SDS011;1535;51.098;6.414;2023-03-16T06:53:15;15.87;;;14.77;;
3050;SDS011;1535;51.098;6.414;2023-03-16T06:55:42;16.43;;;15.10;;
3050;SDS011;1535;51.098;6.414;2023-03-16T06:58:09;16.37;;;14.77;;
3050;SDS011;1535;51.098;6.414;2023-03-16T07:00:36;17.83;;;16.37;;
3050;SDS011;1535;51.098;6.414;2023-03-16T07:03:03;16.17;;;14.57;;
3050;SDS011;1535;51.098;6.414;2023-03-16T07:05:31;23.93;;;16.20;;
3050;SDS011;1535;51.098;6.414;2023-03-16T07:07:58;21.70;;;16.73;;
3050;SDS011;1535;51.098;6.414;2023-03-16T07:10:25;22.70;;;15.93;;
3050;SDS011;1535;51.098;6.414;2023-03-16T07:12:52;25.30;;;15.70;;
3050;SDS011;1535;51.098;6.414;2023-03-16T07:15:19;20.80;;;16.73;;
3050;SDS011;1535;51.098;6.414;2023-03-16T07:17:46;18.03;;;16.13;;
3050;SDS011;1535;51.098;6.414;2023-03-16T07:20:13;19.73;;;16.47;;
3050;SDS011;1535;51.098;6.414;2023-03-16T07:22:42;21.73;;;16.27;;
3050;SDS011;1535;51.098;6.414;2023-03-16T07:25:09;20.10;;;15.90;;
3050;SDS011;1535;51.098;6.414;2023-03-16T07:27:37;24.10;;;16.80;;
3050;SDS011;1535;51.098;6.414;2023-03-16T07:30:05;18.80;;;17.20;;
3050;SDS011;1535;51.098;6.414;2023-03-16T07:32:36;17.70;;;15.93;;
3050;SDS011;1535;51.098;6.414;2023-03-16T07:35:02;17.90;;;16.50;;
3050;SDS011;1535;51.098;6.414;2023-03-16T07:37:30;18.50;;;16.97;;
3050;SDS011;1535;51.098;6.414;2023-03-16T07:40:00;19.30;;;17.10;;
3050;SDS011;1535;51.098;6.414;2023-03-16T07:42:27;21.80;;;16.87;;
3050;SDS011;1535;51.098;6.414;2023-03-16T07:44:54;17.67;;;16.37;;
3050;SDS011;1535;51.098;6.414;2023-03-16T07:47:21;18.17;;;16.90;;
3050;SDS011;1535;51.098;6.414;2023-03-16T07:49:49;18.27;;;16.77;;
3050;SDS011;1535;51.098;6.414;2023-03-16T07:52:16;18.47;;;17.07;;
3050;SDS011;1535;51.098;6.414;2023-03-16T07:54:44;18.53;;;16.80;;
3050;SDS011;1535;51.098;6.414;2023-03-16T07:57:12;18.63;;;17.23;;
3050;SDS011;1535;51.098;6.414;2023-03-16T07:59:39;19.37;;;16.77;;
3050;SDS011;1535;51.098;6.414;2023-03-16T08:02:08;18.17;;;16.80;;
3050;SDS011;1535;51.098;6.414;2023-03-16T08:04:37;18.93;;;17.03;;
3050;SDS011;1535;51.098;6.414;2023-03-16T08:07:06;17.43;;;16.13;;
3050;SDS011;1535;51.098;6.414;2023-03-16T08:09:33;18.40;;;16.83;;
3050;SDS011;1535;51.098;6.414;2023-03-16T08:12:00;17.53;;;16.33;;
3050;SDS011;1535;51.098;6.414;2023-03-16T08:14:29;18.70;;;17.10;;
3050;SDS011;1535;51.098;6.414;2023-03-16T08:16:58;17.83;;;16.40;;
3050;SDS011;1535;51.098;6.414;2023-03-16T08:19:25;18.17;;;16.93;;
3050;SDS011;1535;51.098;6.414;2023-03-16T08:21:52;17.60;;;16.20;;
3050;SDS011;1535;51.098;6.414;2023-03-16T08:24:20;16.47;;;15.27;;
3050;SDS011;1535;51.098;6.414;2023-03-16T08:26:47;17.83;;;15.53;;
3050;SDS011;1535;51.098;6.414;2023-03-16T08:29:13;17.40;;;16.00;;
3050;SDS011;1535;51.098;6.414;2023-03-16T08:31:41;17.37;;;16.17;;
3050;SDS011;1535;51.098;6.414;2023-03-16T08:34:08;18.40;;;16.70;;
3050;SDS011;1535;51.098;6.414;2023-03-16T08:36:36;17.37;;;16.17;;
3050;SDS011;1535;51.098;6.414;2023-03-16T08:39:03;18.83;;;16.70;;
3050;SDS011;1535;51.098;6.414;2023-03-16T08:41:31;16.37;;;15.27;;
3050;SDS011;1535;51.098;6.414;2023-03-16T08:43:58;17.03;;;15.67;;
3050;SDS011;1535;51.098;6.414;2023-03-16T08:46:25;17.17;;;15.97;;
3050;SDS011;1535;51.098;6.414;2023-03-16T08:48:54;16.80;;;15.40;;
3050;SDS011;1535;51.098;6.414;2023-03-16T08:51:21;20.33;;;16.70;;
3050;SDS011;1535;51.098;6.414;2023-03-16T08:53:48;19.37;;;17.43;;
3050;SDS011;1535;51.098;6.414;2023-03-16T08:56:16;18.50;;;16.63;;
3050;SDS011;1535;51.098;6.414;2023-03-16T08:58:42;18.03;;;16.37;;
3050;SDS011;1535;51.098;6.414;2023-03-16T09:01:10;17.60;;;16.20;;
3050;SDS011;1535;51.098;6.414;2023-03-16T09:03:38;17.60;;;16.00;;
3050;SDS011;1535;51.098;6.414;2023-03-16T09:06:08;17.30;;;15.63;;
3050;SDS011;1535;51.098;6.414;2023-03-16T09:08:37;17.90;;;16.60;;
3050;SDS011;1535;51.098;6.414;2023-03-16T09:11:05;18.60;;;17.00;;
3050;SDS011;1535;51.098;6.414;2023-03-16T09:13:33;18.57;;;17.37;;
3050;SDS011;1535;51.098;6.414;2023-03-16T09:16:02;18.30;;;17.10;;
3050;SDS011;1535;51.098;6.414;2023-03-16T09:18:30;21.47;;;19.77;;
3050;SDS011;1535;51.098;6.414;2023-03-16T09:20:57;18.90;;;17.43;;
3050;SDS011;1535;51.098;6.414;2023-03-16T09:23:26;19.63;;;17.80;;
3050;SDS011;1535;51.098;6.414;2023-03-16T09:25:56;19.20;;;17.90;;
3050;SDS011;1535;51.098;6.414;2023-03-16T09:28:23;19.57;;;17.97;;
3050;SDS011;1535;51.098;6.414;2023-03-16T09:30:51;20.80;;;18.70;;
3050;SDS011;1535;51.098;6.414;2023-03-16T09:33:19;19.67;;;18.37;;
3050;SDS011;1535;51.098;6.414;2023-03-16T09:35:47;20.53;;;18.53;;
3050;SDS011;1535;51.098;6.414;2023-03-16T09:38:14;20.03;;;18.63;;
3050;SDS011;1535;51.098;6.414;2023-03-16T09:40:44;20.90;;;19.33;;
3050;SDS011;1535;51.098;6.414;2023-03-16T09:43:15;20.30;;;18.80;;
3050;SDS011;1535;51.098;6.414;2023-03-16T09:45:51;19.77;;;18.37;;
3050;SDS011;1535;51.098;6.414;2023-03-16T09:48:26;19.33;;;18.03;;
3050;SDS011;1535;51.098;6.414;2023-03-16T09:50:55;21.43;;;18.77;;
3050;SDS011;1535;51.098;6.414;2023-03-16T09:53:26;19.57;;;18.10;;
3050;SDS011;1535;51.098;6.414;2023-03-16T09:55:56;19.80;;;18.50;;
3050;SDS011;1535;51.098;6.414;2023-03-16T09:58:27;18.80;;;17.60;;
3050;SDS011;1535;51.098;6.414;2023-03-16T10:00:58;20.33;;;19.00;;
3050;SDS011;1535;51.098;6.414;2023-03-16T10:03:35;20.63;;;18.87;;
3050;SDS011;1535;51.098;6.414;2023-03-16T10:06:15;20.57;;;18.90;;
3050;SDS011;1535;51.098;6.414;2023-03-16T10:08:42;20.23;;;18.90;;
3050;SDS011;1535;51.098;6.414;2023-03-16T10:11:16;20.30;;;18.77;;
3050;SDS011;1535;51.098;6.414;2023-03-16T10:13:50;20.10;;;18.87;;
3050;SDS011;1535;51.098;6.414;2023-03-16T10:16:21;20.43;;;19.10;;
3050;SDS011;1535;51.098;6.414;2023-03-16T10:18:54;21.00;;;19.30;;
3050;SDS011;1535;51.098;6.414;2023-03-16T10:21:26;19.53;;;17.97;;
3050;SDS011;1535;51.098;6.414;2023-03-16T10:23:56;20.87;;;19.47;;
3050;SDS011;1535;51.098;6.414;2023-03-16T10:26:32;19.43;;;18.33;;
3050;SDS011;1535;51.098;6.414;2023-03-16T10:29:07;20.30;;;18.60;;
3050;SDS011;1535;51.098;6.414;2023-03-16T10:31:39;20.77;;;18.90;;
3050;SDS011;1535;51.098;6.414;2023-03-16T10:34:07;20.17;;;18.77;;
3050;SDS011;1535;51.098;6.414;2023-03-16T10:36:36;19.80;;;18.40;;
3050;SDS011;1535;51.098;6.414;2023-03-16T10:39:06;20.20;;;18.77;;
3050;SDS011;1535;51.098;6.414;2023-03-16T10:41:36;19.33;;;18.03;;
3050;SDS011;1535;51.098;6.414;2023-03-16T10:44:05;23.90;;;18.93;;
3050;SDS011;1535;51.098;6.414;2023-03-16T10:46:37;20.23;;;19.00;;
3050;SDS011;1535;51.098;6.414;2023-03-16T10:49:16;20.60;;;19.33;;
3050;SDS011;1535;51.098;6.414;2023-03-16T10:51:47;20.63;;;19.23;;
3050;SDS011;1535;51.098;6.414;2023-03-16T10:54:14;19.73;;;18.43;;
3050;SDS011;1535;51.098;6.414;2023-03-16T10:56:45;21.20;;;19.50;;
3050;SDS011;1535;51.098;6.414;2023-03-16T10:59:19;22.73;;;19.30;;
3050;SDS011;1535;51.098;6.414;2023-03-16T11:01:52;21.93;;;19.47;;
3050;SDS011;1535;51.098;6.414;2023-03-16T11:04:19;21.20;;;19.60;;
3050;SDS011;1535;51.098;6.414;2023-03-16T11:06:47;20.20;;;18.90;;
3050;SDS011;1535;51.098;6.414;2023-03-16T11:09:18;21.37;;;19.70;;
3050;SDS011;1535;51.098;6.414;2023-03-16T11:11:50;20.57;;;18.97;;
3050;SDS011;1535;51.098;6.414;2023-03-16T11:14:19;24.60;;;18.63;;
3050;SDS011;1535;51.098;6.414;2023-03-16T11:16:49;20.63;;;18.73;;
3050;SDS011;1535;51.098;6.414;2023-03-16T11:19:23;21.27;;;19.40;;
3050;SDS011;1535;51.098;6.414;2023-03-16T11:21:55;19.57;;;18.10;;
3050;SDS011;1535;51.098;6.414;2023-03-16T11:24:26;21.20;;;18.57;;
3050;SDS011;1535;51.098;6.414;2023-03-16T11:27:01;19.57;;;17.93;;
3050;SDS011;1535;51.098;6.414;2023-03-16T11:29:37;21.40;;;18.00;;
3050;SDS011;1535;51.098;6.414;2023-03-16T11:32:12;19.57;;;17.73;;
3050;SDS011;1535;51.098;6.414;2023-03-16T11:34:44;19.10;;;17.90;;
3050;SDS011;1535;51.098;6.414;2023-03-16T11:37:13;19.60;;;18.30;;
3050;SDS011;1535;51.098;6.414;2023-03-16T11:39:52;20.60;;;18.60;;
3050;SDS011;1535;51.098;6.414;2023-03-16T11:42:36;22.23;;;18.67;;
3050;SDS011;1535;51.098;6.414;2023-03-16T11:45:12;18.43;;;17.03;;
3050;SDS011;1535;51.098;6.414;2023-03-16T11:47:50;20.87;;;18.87;;
3050;SDS011;1535;51.098;6.414;2023-03-16T11:50:33;19.00;;;17.63;;
3050;SDS011;1535;51.098;6.414;2023-03-16T11:53:10;20.13;;;18.40;;
3050;SDS011;1535;51.098;6.414;2023-03-16T11:55:46;18.60;;;17.50;;
3050;SDS011;1535;51.098;6.414;2023-03-16T11:58:23;22.07;;;16.90;;
3050;SDS011;1535;51.098;6.414;2023-03-16T12:01:00;20.27;;;18.00;;
3050;SDS011;1535;51.098;6.414;2023-03-16T12:06:36;21.03;;;19.17;;
3050;SDS011;1535;51.098;6.414;2023-03-16T12:12:21;34.70;;;18.50;;
3050;SDS011;1535;51.098;6.414;2023-03-16T12:15:02;22.57;;;20.10;;
3050;SDS011;1535;51.098;6.414;2023-03-16T12:17:45;22.10;;;18.80;;
3050;SDS011;1535;51.098;6.414;2023-03-16T12:20:19;22.03;;;19.90;;
3050;SDS011;1535;51.098;6.414;2023-03-16T12:22:49;21.57;;;18.73;;
3050;SDS011;1535;51.098;6.414;2023-03-16T12:25:24;20.53;;;18.77;;
3050;SDS011;1535;51.098;6.414;2023-03-16T12:28:01;20.30;;;18.40;;
3050;SDS011;1535;51.098;6.414;2023-03-16T12:30:35;25.47;;;17.60;;
3050;SDS011;1535;51.098;6.414;2023-03-16T12:33:09;19.60;;;17.87;;
3050;SDS011;1535;51.098;6.414;2023-03-16T12:35:45;21.30;;;19.00;;
3050;SDS011;1535;51.098;6.414;2023-03-16T12:38:19;25.57;;;19.13;;
3050;SDS011;1535;51.098;6.414;2023-03-16T12:41:00;25.67;;;19.07;;
3050;SDS011;1535;51.098;6.414;2023-03-16T12:43:44;22.93;;;18.40;;
3050;SDS011;1535;51.098;6.414;2023-03-16T12:46:21;19.30;;;18.00;;
3050;SDS011;1535;51.098;6.414;2023-03-16T12:48:54;23.80;;;18.23;;
3050;SDS011;1535;51.098;6.414;2023-03-16T12:51:31;27.53;;;18.47;;
3050;SDS011;1535;51.098;6.414;2023-03-16T12:54:00;19.53;;;17.73;;
3050;SDS011;1535;51.098;6.414;2023-03-16T12:56:32;21.67;;;18.67;;
3050;SDS011;1535;51.098;6.414;2023-03-16T12:59:03;20.10;;;18.30;;
3050;SDS011;1535;51.098;6.414;2023-03-16T13:01:37;20.10;;;18.10;;
3050;SDS011;1535;51.098;6.414;2023-03-16T13:04:10;19.30;;;17.53;;
3050;SDS011;1535;51.098;6.414;2023-03-16T13:06:41;19.23;;;17.83;;
3050;SDS011;1535;51.098;6.414;2023-03-16T13:09:11;18.60;;;17.57;;
3050;SDS011;1535;51.098;6.414;2023-03-16T13:11:44;19.77;;;18.47;;
3050;SDS011;1535;51.098;6.414;2023-03-16T13:14:15;18.07;;;17.17;;
3050;SDS011;1535;51.098;6.414;2023-03-16T13:17:03;17.47;;;16.57;;
3050;SDS011;1535;51.098;6.414;2023-03-16T13:19:31;18.67;;;17.43;;
3050;SDS011;1535;51.098;6.414;2023-03-16T13:22:03;19.20;;;17.57;;
3050;SDS011;1535;51.098;6.414;2023-03-16T13:24:50;19.03;;;17.50;;
3050;SDS011;1535;51.098;6.414;2023-03-16T13:27:22;18.83;;;17.33;;
3050;SDS011;1535;51.098;6.414;2023-03-16T13:29:53;18.07;;;16.80;;
3050;SDS011;1535;51.098;6.414;2023-03-16T13:32:24;18.97;;;17.67;;
3050;SDS011;1535;51.098;6.414;2023-03-16T13:34:56;29.67;;;17.70;;
3050;SDS011;1535;51.098;6.414;2023-03-16T13:37:26;29.20;;;18.57;;
3050;SDS011;1535;51.098;6.414;2023-03-16T13:39:54;28.70;;;19.30;;
3050;SDS011;1535;51.098;6.414;2023-03-16T13:42:24;21.93;;;18.00;;
3050;SDS011;1535;51.098;6.414;2023-03-16T13:44:52;19.17;;;17.77;;
3050;SDS011;1535;51.098;6.414;2023-03-16T13:47:21;37.47;;;18.57;;
3050;SDS011;1535;51.098;6.414;2023-03-16T13:49:53;20.90;;;18.73;;
3050;SDS011;1535;51.098;6.414;2023-03-16T13:52:23;19.20;;;17.80;;
3050;SDS011;1535;51.098;6.414;2023-03-16T13:54:51;21.23;;;19.00;;
3050;SDS011;1535;51.098;6.414;2023-03-16T13:57:20;21.17;;;19.33;;
3050;SDS011;1535;51.098;6.414;2023-03-16T13:59:49;20.10;;;17.67;;
3050;SDS011;1535;51.098;6.414;2023-03-16T14:02:22;20.50;;;18.43;;
3050;SDS011;1535;51.098;6.414;2023-03-16T14:04:49;19.63;;;18.00;;
3050;SDS011;1535;51.098;6.414;2023-03-16T14:07:19;21.47;;;18.50;;
3050;SDS011;1535;51.098;6.414;2023-03-16T14:09:48;25.17;;;18.07;;
3050;SDS011;1535;51.098;6.414;2023-03-16T14:12:18;18.60;;;17.40;;
3050;SDS011;1535;51.098;6.414;2023-03-16T14:14:46;19.73;;;18.23;;
3050;SDS011;1535;51.098;6.414;2023-03-16T14:17:15;19.67;;;18.13;;
3050;SDS011;1535;51.098;6.414;2023-03-16T14:19:44;25.63;;;19.13;;
3050;SDS011;1535;51.098;6.414;2023-03-16T14:22:14;20.30;;;18.57;;
3050;SDS011;1535;51.098;6.414;2023-03-16T14:24:45;21.20;;;19.37;;
3050;SDS011;1535;51.098;6.414;2023-03-16T14:27:19;20.63;;;18.47;;
3050;SDS011;1535;51.098;6.414;2023-03-16T14:29:53;21.67;;;19.40;;
3050;SDS011;1535;51.098;6.414;2023-03-16T14:32:25;28.77;;;18.87;;
3050;SDS011;1535;51.098;6.414;2023-03-16T14:34:59;27.13;;;18.60;;
3050;SDS011;1535;51.098;6.414;2023-03-16T14:37:37;24.37;;;19.03;;
3050;SDS011;1535;51.098;6.414;2023-03-16T14:40:07;20.93;;;18.80;;
3050;SDS011;1535;51.098;6.414;2023-03-16T14:42:46;20.67;;;18.83;;
3050;SDS011;1535;51.098;6.414;2023-03-16T14:45:13;20.93;;;18.40;;
3050;SDS011;1535;51.098;6.414;2023-03-16T14:47:43;22.43;;;17.40;;
3050;SDS011;1535;51.098;6.414;2023-03-16T14:50:12;20.57;;;18.67;;
3050;SDS011;1535;51.098;6.414;2023-03-16T14:52:42;21.80;;;19.47;;
3050;SDS011;1535;51.098;6.414;2023-03-16T14:55:13;20.40;;;18.73;;
3050;SDS011;1535;51.098;6.414;2023-03-16T14:57:43;40.33;;;19.93;;
3050;SDS011;1535;51.098;6.414;2023-03-16T15:00:10;27.13;;;18.37;;
3050;SDS011;1535;51.098;6.414;2023-03-16T15:02:39;19.17;;;18.10;;
3050;SDS011;1535;51.098;6.414;2023-03-16T15:05:08;23.37;;;18.97;;
3050;SDS011;1535;51.098;6.414;2023-03-16T15:07:40;20.43;;;18.63;;
3050;SDS011;1535;51.098;6.414;2023-03-16T15:10:16;20.40;;;18.43;;
3050;SDS011;1535;51.098;6.414;2023-03-16T15:12:47;20.20;;;18.40;;